Terminal Aerodrome Forecast
Issued by NWS Charleston, WV

Current Version | Previous Version | Graphics & Text | Print | Product List | Glossary On
Versions: 1 2 3 4 5 6 7 8 9 10 11 12 13 14 15 16 17 18 19 20 21 22 23 24 25
000
FTUS41 KRLX 271130
TAFBKW
TAF
KBKW 271130Z 2712/2812 22005KT P6SM BKN015
      TEMPO 2712/2714 SCT015
     FM271500 25005KT P6SM BKN025
     FM271800 25005KT P6SM BKN035
     FM272300 22004KT P6SM VCTS BKN035CB
     FM280200 VRB03KT P6SM SCT035
     FM280800 00000KT P6SM BKN035
     FM281100 00000KT P6SM BKN025=

USA.gov is the U.S. government's official web portal to all federal, state and local government web resources and services.